• Join FlightAware (Why Join?)
  • Login
  • US Flag 
08:39AM EDT


 

Airport Tracker/Info


-or-


 

Live Flight TrackerFlight Track Log ✈ N658DS ✈ 29-Jun-2013 ✈ KAPF - KAPF

Flight Track Log - Related Links

Times and Time Zones

All times are in EDT time to prevent confusion due to time zone crossing. See the N658DS flight status page for this flight to view local times or setup timezone preferences in your user account.

Time Position Orientation Groundspeed Altitude Reporting Facility
EDT Latitude Longitude Course Direction KTS MPH feet Rate Location/Type
12:33PM 26.2610 -81.6389 42° Northeast  Level FlightAware Approximate
12:34PM 26.2809 -81.6191 42° Northeast  Level FlightAware Approximate
12:35PM 26.3007 -81.5993 42° Northeast  Level FlightAware Approximate
12:36PM 26.3192 -81.5783 61° Northeast  Level FlightAware Approximate
12:37PM 26.3321 -81.5524 61° Northeast  Level FlightAware Approximate
12:38PM 26.3505 -81.5311 45° Northeast  Level FlightAware Approximate
12:39PM 26.3694 -81.5102 45° Northeast  Level FlightAware Approximate
12:40PM 26.3883 -81.4894 45° Northeast  Level FlightAware Approximate
12:41PM 26.4073 -81.4685 45° Northeast  Level FlightAware Approximate
12:42PM 26.4262 -81.4476 45° Northeast  Level FlightAware Approximate
12:42PM 26.4308 -81.4917 45° Northeast 146 168 7,100  Level Miami Center
12:43PM 26.4451 -81.4268 45° Northeast  Level FlightAware Approximate
12:43PM 26.4631 -81.4675 34° Northeast 146 168 7,100  Level Miami Center
12:44PM 26.4640 -81.4059 45° Northeast  Level FlightAware Approximate
12:44PM 26.4953 -81.4361 41° Northeast 146 168 7,100  Level Miami Center
12:45PM 26.4830 -81.3850 45° Northeast  Level FlightAware Approximate
12:45PM 26.5272 -81.4142 32° Northeast 146 168 7,100  Level Miami Center
12:46PM 26.5019 -81.3641 45° Northeast  Level FlightAware Approximate
12:46PM 26.5617 -81.3856 37° Northeast 146 168 7,100  Level Miami Center
12:47PM 26.5208 -81.3432 45° Northeast  Level FlightAware Approximate
12:47PM 26.5856 -81.3517 52° Northeast 165 190 7,000  Level Miami Center
12:48PM 26.6036 -81.3128 63° Northeast 148 170 7,000  Level Miami Center
12:49PM 26.6192 -81.2739 66° East 143 165 7,000  Level Miami Center
12:50PM 26.6369 -81.2372 62° Northeast 137 158 7,100  Climbing Miami Center
12:51PM 26.6572 -81.1964 61° Northeast 137 158 7,100 -60 Level Miami Center
12:52PM 26.6792 -81.1600 56° Northeast 142 163 7,000 -60 Descending Miami Center
12:53PM 26.7111 -81.1308 39° Northeast 135 155 7,000  Level Miami Center
12:54PM 26.7494 -81.1136 22° Northeast 141 162 7,000  Level Miami Center
12:55PM 26.7856 -81.0847 36° Northeast 147 169 7,000  Level Miami Center
12:56PM 26.8175 -81.0625 32° Northeast 147 169 7,000  Level Miami Center
12:57PM 26.8539 -81.0406 28° Northeast 142 163 7,000  Level Miami Center
12:58PM 26.8897 -81.0278 18° North 137 158 7,000  Level Miami Center
12:59PM 26.9297 -81.0131 18° North 137 158 7,000  Level Miami Center
01:00PM 26.9717 -81.0028 12° North 137 158 7,000  Level Miami Center
01:01PM 27.0078 -80.9856 23° Northeast 143 165 7,100  Climbing Miami Center
01:02PM 27.0358 -80.9517 47° Northeast 138 159 7,100  Level Miami Center
01:03PM 27.0636 -80.9292 36° Northeast 138 159 7,100  Level Miami Center
01:04PM 27.0978 -80.9000 37° Northeast 143 165 7,100  Level Miami Center
01:05PM 27.1239 -80.8636 51° Northeast 138 159 7,100 -240 Level Miami Center
01:06PM 27.1500 -80.8225 54° Northeast 144 166 6,700 -480 Descending Miami Center
01:07PM 27.1781 -80.7931 43° Northeast 152 175 6,200 -540 Descending Miami Center
01:08PM 27.2061 -80.7544 51° Northeast 152 175 5,700 -600 Descending Miami Center
01:09PM 27.2367 -80.7133 50° Northeast 152 175 5,000 -360 Descending Miami Center
01:10PM 27.2581 -80.6861 49° Northeast 152 175 5,000  Level Miami Center
01:11PM 27.2883 -80.6450 50° Northeast 147 169 5,000 -180 Level Miami Center
01:12PM 27.3103 -80.6131 52° Northeast 147 169 4,700 -420 Descending Miami Center
01:13PM 27.3361 -80.5764 52° Northeast 147 169 4,200 -360 Descending Miami Center
01:14PM 27.3622 -80.5375 53° Northeast 147 169 4,000 -60 Descending Miami Center
01:15PM 27.3861 -80.5008 54° Northeast 147 169 4,100  Climbing Miami Center
01:16PM 27.4017 -80.4664 63° Northeast 142 163 4,000 -60 Descending Miami Center
01:17PM 27.4214 -80.4294 59° Northeast 137 158 4,000  Level Miami Center
01:18PM 27.4392 -80.3856 65° Northeast 137 158 4,100  Climbing Miami Center
01:19PM 27.4567 -80.3464 63° Northeast 137 158 4,100 -300 Level Miami Center
01:20PM 27.4744 -80.3072 63° Northeast 137 158 3,600 -600 Descending Miami Center
01:21PM 27.4942 -80.2703 59° Northeast 137 158 3,000 -300 Descending Miami Center
01:22PM 27.5117 -80.2286 65° Northeast 137 158 3,100  Climbing Miami Center
01:23PM 27.5394 -80.1989 43° Northeast 137 158 3,100  Level Miami Center
01:24PM 27.5714 -80.1742 34° Northeast 137 158 3,100 -60 Level Miami Center
01:25PM 27.5897 -80.2006 308° West 103 119 3,000 -240 Descending Miami Center
01:26PM 27.5972 -80.2358 283° West 109 125 2,700 -480 Descending Miami Center
01:27PM 27.6086 -80.2783 287° West 123 142 2,100 -480 Descending Miami Center
01:28PM 27.6164 -80.3092 286° West 116 133 1,800 -240 Descending Miami Center
01:29PM 27.6261 -80.3350 293° West 97 112 1,700 -480 Descending Miami Center
01:30PM 27.6339 -80.3589 290° West 91 105 900 -600 Descending Miami Center
01:31PM 27.6436 -80.3872 291° West 91 105 500 -300 Descending Miami Center
01:32PM 27.6492 -80.4131 284° West 86 99 300  Descending Miami Center
01:33PM 27.6592 -80.4322 301° West 130 150 500 480 Climbing Miami Center
01:34PM 27.6586 -80.4581 269° West 103 119 1,300 660 Climbing Miami Center
01:35PM 27.6558 -80.4836 263° West 98 113 1,900 780 Climbing Miami Center
01:36PM 27.6531 -80.5142 264° West 98 113 2,900 660 Climbing Miami Center
01:37PM 27.6522 -80.5469 268° West 98 113 3,300 480 Climbing Miami Center
01:38PM 27.6453 -80.5725 253° West 98 113 3,900 360 Climbing Miami Center
01:39PM 27.6239 -80.5906 217° Southwest 98 113 4,100 60 Climbing Miami Center
01:40PM 27.6003 -80.6131 220° Southwest 115 132 4,100  Level Miami Center
01:41PM 27.5767 -80.6406 226° Southwest 115 132 4,100 -60 Level Miami Center
01:42PM 27.5531 -80.6631 220° Southwest 115 132 4,000 -60 Descending Miami Center
01:43PM 27.5294 -80.6881 223° Southwest 121 139 4,000  Level Miami Center
01:44PM 27.5058 -80.7108 221° Southwest 116 133 4,000  Level Miami Center
01:45PM 27.4825 -80.7333 221° Southwest 116 133 4,000  Level Miami Center
01:46PM 27.4586 -80.7606 225° Southwest 116 133 4,100  Climbing Miami Center
01:47PM 27.4331 -80.7856 221° Southwest 122 140 4,100  Level Miami Center
01:48PM 27.4114 -80.8081 223° Southwest 122 140 4,100  Level Miami Center
01:49PM 27.3856 -80.8353 223° Southwest 117 135 4,100  Level Miami Center
01:50PM 27.3619 -80.8603 223° Southwest 117 135 4,100  Level Miami Center
01:51PM 27.3386 -80.8806 218° Southwest 117 135 4,100  Level Miami Center
01:52PM 27.3147 -80.9078 225° Southwest 117 135 4,100  Level Miami Center
01:53PM 27.2892 -80.9303 218° Southwest 117 135 4,100  Level Miami Center
01:54PM 27.2697 -80.9528 226° Southwest 117 135 4,100  Level Miami Center
01:55PM 27.2439 -80.9775 220° Southwest 117 135 4,100  Level Miami Center
01:56PM 27.2161 -81.0022 218° Southwest 122 140 4,100  Level Miami Center
01:57PM 27.1881 -81.0317 223° Southwest 122 140 4,100  Level Miami Center
01:58PM 27.1786 -81.0664 253° West 122 140 4,100 -60 Level Miami Center
01:59PM 27.1592 -81.0889 226° Southwest 117 135 4,000 -60 Descending Miami Center
02:00PM 27.1358 -81.1092 218° Southwest 117 135 4,000  Level Miami Center
02:01PM 27.1078 -81.1314 215° Southwest 111 128 4,000  Level Miami Center
02:02PM 27.0842 -81.1561 223° Southwest 111 128 4,000  Level Miami Center
02:03PM 27.0586 -81.1739 212° Southwest 118 136 4,000  Level Miami Center
02:04PM 27.0286 -81.1961 213° Southwest 124 143 4,000  Level Miami Center
02:05PM 27.0011 -81.2114 206° Southwest 119 137 4,000  Level Miami Center
02:06PM 26.9733 -81.2314 213° Southwest 119 137 4,000  Level Miami Center
02:07PM 26.9456 -81.2511 212° Southwest 119 137 4,000  Level Miami Center
02:08PM 26.9158 -81.2711 211° Southwest 119 137 4,000  Level Miami Center
02:09PM 26.8881 -81.2908 212° Southwest 124 143 4,000  Level Miami Center
02:10PM 26.8583 -81.3083 208° Southwest 124 143 4,000  Level Miami Center
02:11PM 26.8286 -81.3283 211° Southwest 124 143 4,000  Level Miami Center
02:12PM 26.8008 -81.3481 212° Southwest 124 143 4,000 -120 Level Miami Center
02:13PM 26.7708 -81.3703 213° Southwest 124 143 3,800 -240 Descending Miami Center
02:15PM 26.7200 -81.4042 211° Southwest  Level FlightAware Approximate
02:22PM 26.4718 -81.5693 211° Southwest  Level FlightAware Approximate
02:23PM 26.4363 -81.5928 211° Southwest  Level FlightAware Approximate
02:24PM 26.4008 -81.6164 211° Southwest  Level FlightAware Approximate
02:25PM 26.3653 -81.6399 211° Southwest  Level FlightAware Approximate
02:26PM 26.3281 -81.6637 209° Southwest  Level FlightAware Approximate
02:27PM 26.2921 -81.6862 209° Southwest  Level FlightAware Approximate
02:28PM 26.2561 -81.7087 209° Southwest  Level FlightAware Approximate
02:29PM 26.2201 -81.7312 209° Southwest  Level FlightAware Approximate
02:30PM 26.1826 -81.7504 204° Southwest  Level FlightAware Approximate
02:31PM 26.1500 -81.7667 204° Southwest  Level FlightAware Approximate
02:32PM 26.1524 -81.7756 204° Southwest  Level Estimated
02:33PM 26.1524 -81.7756 204° Southwest  Level Estimated
02:34PM 26.1524 -81.7756 204° Southwest  Level Estimated
02:35PM 26.1524 -81.7756 204° Southwest  Level Estimated
02:36PM 26.1524 -81.7756 204° Southwest  Level Estimated
02:37PM 26.1524 -81.7756 204° Southwest  Level Estimated
02:38PM 26.1524 -81.7756 204° Southwest  Level Estimated
02:39PM 26.1524 -81.7756 204° Southwest  Level Estimated
02:40PM 26.1524 -81.7756 204° Southwest  Level Estimated
02:41PM 26.1524 -81.7756 204° Southwest  Level Estimated
02:42PM 26.1524 -81.7756 204° Southwest  Level Estimated
02:43PM 26.1524 -81.7756 204° Southwest  Level Estimated
02:44PM 26.1524 -81.7756 204° Southwest  Level Estimated
02:45PM 26.1524 -81.7756 204° Southwest  Level Estimated